Flight Track Log - Related Links

Times and Time Zones

All times are in EDT time to prevent confusion due to time zone crossing. See the UCA3598 flight status page for this flight to view local times or setup timezone preferences in your user account.

Time Position Orientation Groundspeed Altitude Reporting Facility
EDT Latitude Longitude Course Direction KTS MPH feet Rate Location/Type
Fri 10:19:52 PM 38.9833 -77.4667 North 161 185 2,300  Level Potomac TRACON
Fri 10:20:47 PM 39.0167 -77.4833 339° North 166 191 3,600 1,350 Climbing Potomac TRACON
Fri 10:21:52 PM 39.0667 -77.5167 333° Northwest 186 214 5,000 1,412 Climbing Potomac TRACON
Fri 10:22:46 PM 39.1167 -77.5333 346° North 187 215 6,400 1,365 Climbing Potomac TRACON
Fri 10:24:00 PM 39.3160 -77.3001 North  Level Estimated
Fri 10:24:39 PM 39.2108 -77.5122 10° North 194 223 8,800  Level Washington Center
Fri 10:25:00 PM 39.3774 -77.2733 North  Level Estimated
Fri 10:25:39 PM 39.2650 -77.5056 North 199 229 10,200  Level Washington Center
Fri 10:26:41 PM 39.3172 -77.4989 North 199 229 11,700 1,400 Climbing Washington Center
Fri 10:27:39 PM 39.3717 -77.4922 North 199 229 13,000 1,362 Climbing Washington Center
Fri 10:29:24 PM 39.4658 -77.4811 North 198 228 15,400 1,345 Climbing New York Center
Fri 10:30:24 PM 39.5206 -77.4728 North 198 228 16,700 1,311 Climbing New York Center
Fri 10:31:23 PM 39.5689 -77.4667 North 198 228 18,000 1,059 Climbing New York Center
Fri 10:32:23 PM 39.6167 -77.4361 26° Northeast 181 208 18,800 492 Climbing New York Center
Fri 10:33:25 PM 39.6725 -77.4064 22° Northeast 179 206 19,000 98 Climbing New York Center
Fri 10:34:25 PM 39.7242 -77.3761 24° Northeast 208 239 19,000  Level New York Center
Fri 10:35:24 PM 39.7928 -77.3419 21° North 228 262 19,000  Level New York Center
Fri 10:36:25 PM 39.8489 -77.3094 24° Northeast 233 268 19,000  Level New York Center
Fri 10:37:26 PM 39.9197 -77.2728 22° Northeast 239 275 19,000  Level New York Center
Fri 10:38:23 PM 39.9756 -77.2428 22° Northeast 239 275 19,000  Level New York Center
Fri 10:39:25 PM 40.0444 -77.2031 24° Northeast 239 275 19,000  Level New York Center
Fri 10:40:24 PM 40.1022 -77.1758 20° North 239 275 19,000  Level New York Center
Fri 10:41:23 PM 40.1711 -77.1358 24° Northeast 239 275 19,000  Level New York Center
Fri 10:42:24 PM 40.2314 -77.1006 24° Northeast 239 275 19,000  Level New York Center
Fri 10:43:26 PM 40.2936 -77.0683 22° Northeast 239 275 19,000  Level New York Center
Fri 10:44:25 PM 40.3581 -77.0331 23° Northeast 239 275 19,000  Level New York Center
Fri 10:45:26 PM 40.4222 -77.0008 21° North 239 275 19,000  Level New York Center
Fri 10:46:26 PM 40.4844 -76.9656 23° Northeast 239 275 19,000  Level New York Center
Fri 10:47:24 PM 40.5489 -76.9303 23° Northeast 239 275 19,000  Level New York Center
Fri 10:48:25 PM 40.6111 -76.8950 23° Northeast 239 275 19,000  Level New York Center
Fri 10:49:23 PM 40.6714 -76.8592 24° Northeast 239 275 19,000  Level New York Center
Fri 10:50:24 PM 40.7358 -76.8239 23° Northeast 239 275 19,000  Level New York Center
Fri 10:51:23 PM 40.8000 -76.7883 23° Northeast 239 275 19,000  Level New York Center
Fri 10:52:25 PM 40.8622 -76.7556 22° Northeast 239 275 19,000  Level New York Center
Fri 10:53:24 PM 40.9264 -76.7197 23° Northeast 239 275 19,000  Level New York Center
Fri 10:54:24 PM 40.9889 -76.6814 25° Northeast 239 275 19,000  Level New York Center
Fri 10:55:26 PM 41.0447 -76.6478 24° Northeast 239 275 19,000  Level New York Center
Fri 10:56:24 PM 41.1153 -76.6097 22° Northeast 239 275 19,000  Level New York Center
Fri 10:57:24 PM 41.1797 -76.5711 24° Northeast 239 275 19,000  Level New York Center
Fri 10:58:25 PM 41.2417 -76.5378 22° Northeast 239 275 19,000  Level New York Center
Fri 10:59:26 PM 41.3017 -76.5042 23° Northeast 239 275 19,000  Level New York Center
Fri 11:00:25 PM 41.3658 -76.4683 23° Northeast 239 275 19,000  Level New York Center
Fri 11:01:24 PM 41.4367 -76.4272 24° Northeast 239 275 19,000  Level New York Center
Fri 11:02:24 PM 41.5008 -76.3911 23° Northeast 239 275 19,000  Level New York Center
Fri 11:03:26 PM 41.5650 -76.3547 23° Northeast 239 275 19,000 -555 Level New York Center
Fri 11:04:23 PM 41.6250 -76.3211 23° Northeast 239 275 17,900 -1,250 Descending New York Center
Fri 11:05:26 PM 41.6936 -76.2794 24° Northeast 249 287 16,500 -1,785 Descending New York Center
Fri 11:06:24 PM 41.7664 -76.2381 23° Northeast 256 295 14,300 -2,085 Descending New York Center
Fri 11:07:24 PM 41.8367 -76.1994 22° Northeast 262 302 12,400 -1,934 Descending New York Center
Fri 11:08:25 PM 41.9031 -76.1603 24° Northeast 262 302 10,400 -1,785 Descending New York Center
Fri 11:09:25 PM 41.9608 -76.1258 24° Northeast 257 296 8,800 -1,736 Descending New York Center
Fri 11:10:26 PM 42.0189 -76.0831 29° Northeast 257 296 6,900 -1,934 Descending New York Center
Fri 11:11:26 PM 42.0614 -76.0194 48° Northeast 231 266 4,900 -1,729 Descending New York Center
Fri 11:12:24 PM 42.0992 -75.9667 46° Northeast 211 243 3,500 -900 Descending New York Center
Fri 11:13:26 PM 42.1317 -75.9386 33° Northeast 171 197 3,100 -550 Descending New York Center
Fri 11:14:24 PM 42.1667 -75.9467 350° North 127 146 2,400 -500 Descending New York Center
Fri 11:15:26 PM 42.2000 -75.9439 North 122 140 2,100 3,273 Descending New York Center
Fri 11:16:25 PM 42.2314 -75.9381 North 122 140 9,000 3,508 Climbing New York Center
Fri 11:17:24 PM 42.2628 -75.9347 North 122 140 9,000  Level New York Center
Fri 11:18:26 PM 42.2942 -75.9289 North 122 140 9,000  Level New York Center
Fri 11:19:26 PM 42.3069 -75.9269 North 122 140 9,000  Level New York Center
Fri 11:21:25 PM 42.3069 -75.9269 324° Northwest 122 140 9,000  Level New York Center

Login

Don't have an account? Register now (free) for customized features, flight alerts, and more!